createdAt,value
2018-08-06T00:01:19.544Z,55.13
2018-08-06T00:03:48.701Z,56.45
2018-08-06T00:06:17.682Z,55.82
2018-08-06T00:08:46.797Z,56.17
2018-08-06T00:11:15.975Z,56.42
2018-08-06T00:13:45.325Z,56.76
2018-08-06T00:16:14.488Z,56.79
2018-08-06T00:18:43.661Z,57.33
2018-08-06T00:21:12.828Z,56.35
2018-08-06T00:23:42.009Z,56.74
2018-08-06T00:26:11.194Z,57.14
2018-08-06T00:28:40.349Z,57.16
2018-08-06T00:31:09.590Z,56.73
2018-08-06T00:33:38.752Z,57.50
2018-08-06T00:36:07.715Z,56.96
2018-08-06T00:38:36.886Z,57.10
2018-08-06T00:41:06.062Z,57.14
2018-08-06T00:43:35.271Z,57.43
2018-08-06T00:46:04.512Z,57.36
2018-08-06T00:48:33.697Z,58.30
2018-08-06T00:51:02.870Z,58.43
2018-08-06T00:53:32.025Z,58.35
2018-08-06T00:56:01.194Z,57.40
2018-08-06T00:58:30.372Z,58.02
2018-08-06T01:00:59.529Z,57.62
2018-08-06T01:03:28.705Z,58.18
2018-08-06T01:05:57.928Z,57.68
2018-08-06T01:08:27.093Z,58.68
2018-08-06T01:10:56.251Z,58.59
2018-08-06T01:13:25.429Z,58.68
2018-08-06T01:15:54.937Z,58.91
2018-08-06T01:18:24.097Z,58.41
2018-08-06T01:20:53.285Z,58.23
2018-08-06T01:23:22.705Z,58.08
2018-08-06T01:25:51.859Z,58.74
2018-08-06T01:28:21.013Z,58.93
2018-08-06T01:30:50.180Z,58.89
2018-08-06T01:33:19.340Z,58.51
2018-08-06T01:35:48.524Z,57.94
2018-08-06T01:38:17.693Z,58.32
2018-08-06T01:40:46.853Z,59.01
2018-08-06T01:43:16.029Z,59.08
2018-08-06T01:45:45.195Z,59.67
2018-08-06T01:48:14.345Z,59.71
2018-08-06T01:50:43.501Z,59.84
2018-08-06T01:53:12.650Z,59.21
2018-08-06T01:55:41.821Z,59.31
2018-08-06T01:58:10.983Z,60.31
2018-08-06T02:00:40.460Z,60.52
2018-08-06T02:03:09.629Z,59.39
2018-08-06T02:05:38.777Z,60.52
2018-08-06T02:08:07.961Z,60.14
2018-08-06T02:10:37.124Z,60.45
2018-08-06T02:13:06.453Z,60.15
2018-08-06T02:15:35.633Z,59.90
2018-08-06T02:18:04.960Z,60.39
2018-08-06T02:20:34.125Z,60.99
2018-08-06T02:23:03.064Z,59.42
2018-08-06T02:25:32.263Z,60.28
2018-08-06T02:28:01.433Z,60.72
2018-08-06T02:30:30.610Z,60.70
2018-08-06T02:32:59.780Z,60.89
2018-08-06T02:35:28.965Z,60.87
2018-08-06T02:37:58.116Z,61.87
2018-08-06T02:40:27.301Z,61.30
2018-08-06T02:42:56.773Z,60.33
2018-08-06T02:45:25.929Z,61.27
2018-08-06T02:47:55.089Z,60.46
2018-08-06T02:50:24.417Z,61.41
2018-08-06T02:52:53.581Z,60.47
2018-08-06T02:55:22.736Z,60.62
2018-08-06T02:57:51.906Z,60.73
2018-08-06T03:00:21.078Z,61.30
2018-08-06T03:02:50.249Z,60.97
2018-08-06T03:05:20.199Z,60.73
2018-08-06T03:07:49.861Z,61.38
2018-08-06T03:10:19.057Z,60.64
2018-08-06T03:12:48.397Z,61.21
2018-08-06T03:15:17.569Z,61.52
2018-08-06T03:17:46.721Z,61.76
2018-08-06T03:20:16.117Z,61.27
2018-08-06T03:22:45.305Z,61.69
2018-08-06T03:25:16.364Z,61.82
2018-08-06T03:27:45.954Z,61.91
2018-08-06T03:30:17.033Z,61.54
2018-08-06T03:32:48.234Z,61.29
2018-08-06T03:37:45.817Z,60.90
2018-08-06T03:40:15.087Z,61.10
2018-08-06T03:42:44.180Z,62.50
2018-08-06T03:45:13.504Z,62.38
2018-08-06T03:47:43.325Z,62.09
2018-08-06T03:50:13.750Z,61.90
2018-08-06T03:52:43.290Z,62.49
2018-08-06T03:55:12.745Z,62.26
2018-08-06T03:57:42.161Z,62.02
2018-08-06T04:00:13.592Z,62.07
2018-08-06T04:02:43.316Z,62.69
2018-08-06T04:05:13.664Z,62.60
2018-08-06T04:07:42.841Z,62.35
2018-08-06T04:10:14.696Z,62.26
2018-08-06T04:12:43.877Z,62.46
2018-08-06T04:15:15.083Z,62.64
2018-08-06T04:17:44.733Z,62.66
2018-08-06T04:20:14.348Z,63.30
2018-08-06T04:22:44.074Z,62.78
2018-08-06T04:25:13.474Z,62.58
2018-08-06T04:27:44.150Z,61.71
2018-08-06T04:30:14.550Z,63.41
2018-08-06T04:32:44.880Z,62.97
2018-08-06T04:35:14.139Z,62.74
2018-08-06T04:37:44.025Z,62.81
2018-08-06T04:40:14.093Z,63.38
2018-08-06T04:42:43.672Z,63.02
2018-08-06T04:45:12.979Z,63.50
2018-08-06T04:47:44.163Z,62.96
2018-08-06T04:50:14.729Z,63.65
2018-08-06T04:52:45.125Z,63.93
2018-08-06T04:55:15.133Z,64.34
2018-08-06T04:57:44.307Z,63.90
2018-08-06T05:00:15.026Z,63.86
2018-08-06T05:02:44.745Z,64.22
2018-08-06T05:05:13.933Z,64.01
2018-08-06T05:07:43.121Z,63.92
2018-08-06T05:10:12.380Z,64.16
2018-08-06T05:12:41.533Z,63.96
2018-08-06T05:15:10.722Z,64.14
2018-08-06T05:17:39.972Z,64.78
2018-08-06T05:20:09.169Z,64.62
2018-08-06T05:22:38.333Z,64.55
2018-08-06T05:25:07.585Z,64.56
2018-08-06T05:27:36.816Z,64.64
2018-08-06T05:30:09.019Z,64.56
2018-08-06T05:32:38.195Z,65.02
2018-08-06T05:35:07.717Z,65.05
2018-08-06T05:37:36.920Z,64.10
2018-08-06T05:40:07.513Z,63.41
2018-08-06T05:42:37.145Z,62.42
2018-08-06T05:45:07.592Z,62.34
2018-08-06T05:47:37.069Z,61.72
2018-08-06T05:50:09.617Z,61.17
2018-08-06T05:52:38.805Z,60.91
2018-08-06T05:55:09.048Z,61.46
2018-08-06T05:57:38.468Z,61.97
2018-08-06T06:00:14.473Z,62.16
2018-08-06T06:02:44.366Z,63.03
2018-08-06T06:05:13.549Z,62.80
2018-08-06T06:07:43.045Z,62.66
2018-08-06T06:10:14.392Z,63.23
2018-08-06T06:12:43.561Z,64.05
2018-08-06T06:15:15.865Z,64.34
2018-08-06T06:17:45.237Z,64.42
2018-08-06T06:20:14.432Z,64.20
2018-08-06T06:22:43.589Z,62.76
2018-08-06T06:25:13.583Z,64.47
2018-08-06T06:27:43.160Z,64.25
2018-08-06T06:30:15.441Z,64.56
2018-08-06T06:32:44.636Z,64.71
2018-08-06T06:35:14.250Z,64.00
2018-08-06T06:37:43.550Z,64.34
2018-08-06T06:40:12.721Z,63.59
2018-08-06T06:42:41.976Z,64.72
2018-08-06T06:45:11.425Z,65.01
2018-08-06T06:47:40.626Z,64.83
2018-08-06T06:50:10.041Z,64.85
2018-08-06T06:52:39.220Z,64.35
2018-08-06T06:55:10.956Z,63.95
2018-08-06T06:57:40.129Z,64.63
2018-08-06T07:00:10.554Z,65.65
2018-08-06T07:02:40.354Z,64.32
2018-08-06T07:05:09.721Z,63.92
2018-08-06T07:07:38.913Z,65.03
2018-08-06T07:10:10.674Z,64.51
2018-08-06T07:12:39.877Z,63.98
2018-08-06T07:15:14.294Z,64.57
2018-08-06T07:17:45.841Z,64.33
2018-08-06T07:20:16.570Z,63.07
2018-08-06T07:22:45.677Z,63.35
2018-08-06T07:25:14.884Z,63.09
2018-08-06T07:27:44.382Z,62.15
2018-08-06T07:30:14.525Z,62.75
2018-08-06T07:32:44.303Z,62.03
2018-08-06T07:35:14.237Z,63.99
2018-08-06T07:37:43.697Z,64.25
2018-08-06T07:40:14.202Z,62.00
2018-08-06T07:42:43.356Z,61.46
2018-08-06T07:45:15.797Z,63.00
2018-08-06T07:47:45.429Z,62.34
2018-08-06T07:50:16.793Z,62.17
2018-08-06T07:52:46.002Z,63.02
2018-08-06T07:55:15.212Z,61.83
2018-08-06T07:57:44.449Z,61.58
2018-08-06T08:00:18.644Z,60.80
2018-08-06T08:02:47.828Z,60.42
2018-08-06T08:05:18.018Z,59.75
2018-08-06T08:07:47.901Z,59.33
2018-08-06T08:10:19.496Z,60.58
2018-08-06T08:12:48.684Z,60.22
2018-08-06T08:15:19.832Z,59.53
2018-08-06T08:17:49.009Z,60.11
2018-08-06T08:20:18.893Z,58.26
2018-08-06T08:22:47.932Z,58.90
2018-08-06T08:25:19.096Z,59.83
2018-08-06T08:27:48.293Z,59.19
2018-08-06T08:30:18.196Z,58.50
2018-08-06T08:32:47.413Z,56.97
2018-08-06T08:35:17.193Z,58.26
2018-08-06T08:37:46.381Z,58.25
2018-08-06T08:40:18.020Z,59.55
2018-08-06T08:42:47.186Z,58.52
2018-08-06T08:45:17.672Z,58.39
2018-08-06T08:47:46.951Z,57.42
2018-08-06T08:50:18.425Z,57.11
2018-08-06T08:52:47.613Z,55.31
2018-08-06T08:55:18.568Z,57.84
2018-08-06T08:57:47.728Z,57.03
2018-08-06T09:00:19.973Z,57.30
2018-08-06T09:02:49.924Z,58.60
2018-08-06T09:05:19.628Z,56.54
2018-08-06T09:07:49.708Z,56.77
2018-08-06T09:10:19.454Z,55.58
2018-08-06T09:12:48.967Z,56.65
2018-08-06T09:15:21.959Z,57.20
2018-08-06T09:17:51.145Z,56.47
2018-08-06T09:20:20.397Z,55.96
2018-08-06T09:22:49.633Z,55.13
2018-08-06T09:25:18.803Z,55.10
2018-08-06T09:27:49.392Z,55.01
2018-08-06T09:30:20.725Z,56.07
2018-08-06T09:32:51.368Z,55.10
2018-08-06T09:35:20.969Z,55.77
2018-08-06T09:37:50.356Z,55.38
2018-08-06T09:40:20.607Z,55.09
2018-08-06T09:42:50.288Z,51.41
2018-08-06T09:45:20.929Z,51.84
2018-08-06T09:47:51.288Z,52.54
2018-08-06T09:50:21.074Z,53.31
2018-08-06T09:52:51.294Z,52.23
2018-08-06T09:55:24.428Z,53.01
2018-08-06T09:57:54.197Z,52.46
2018-08-06T10:00:28.948Z,50.46
2018-08-06T10:02:59.449Z,51.61
2018-08-06T10:05:29.079Z,46.23
2018-08-06T10:07:58.244Z,49.39
2018-08-06T10:10:27.408Z,50.36
2018-08-06T10:12:56.595Z,49.62
2018-08-06T10:15:25.765Z,48.36
2018-08-06T10:17:55.557Z,48.30
2018-08-06T10:20:25.861Z,48.76
2018-08-06T10:22:55.041Z,46.87
2018-08-06T10:25:24.221Z,48.68
2018-08-06T10:27:53.373Z,49.68
2018-08-06T10:30:23.321Z,45.75
2018-08-06T10:32:52.525Z,43.65
2018-08-06T10:35:21.981Z,46.59
2018-08-06T10:37:51.160Z,45.52
2018-08-06T10:40:21.551Z,46.36
2018-08-06T10:42:50.689Z,46.54
2018-08-06T10:45:24.089Z,47.14
2018-08-06T10:47:53.640Z,43.29
2018-08-06T10:50:22.857Z,45.71
2018-08-06T10:52:52.033Z,45.04
2018-08-06T10:55:21.214Z,42.99
2018-08-06T10:57:50.396Z,42.92
2018-08-06T11:00:20.528Z,43.30
2018-08-06T11:02:50.286Z,44.71
2018-08-06T11:05:19.921Z,42.52
2018-08-06T11:07:49.090Z,43.61
2018-08-06T11:10:19.569Z,44.17
2018-08-06T11:12:48.789Z,45.06
2018-08-06T11:15:20.312Z,41.98
2018-08-06T11:17:49.472Z,42.70
2018-08-06T11:20:19.447Z,43.31
2018-08-06T11:22:48.589Z,43.70
2018-08-06T11:25:20.010Z,43.32
2018-08-06T11:27:49.400Z,44.74
2018-08-06T11:30:21.430Z,45.28
2018-08-06T11:32:51.225Z,43.61
2018-08-06T11:35:20.541Z,44.42
2018-08-06T11:37:49.693Z,42.90
2018-08-06T11:40:19.136Z,42.95
2018-08-06T11:42:48.848Z,43.12
2018-08-06T11:45:19.280Z,43.35
2018-08-06T11:47:48.441Z,40.24
2018-08-06T11:50:17.629Z,41.73
2018-08-06T11:52:46.853Z,42.32
2018-08-06T11:55:16.046Z,42.21
2018-08-06T11:57:45.201Z,41.04
2018-08-06T12:00:20.141Z,40.58
2018-08-06T12:02:49.357Z,40.40
2018-08-06T12:05:18.565Z,41.00
2018-08-06T12:07:47.753Z,40.20
2018-08-06T12:10:18.203Z,42.37
2018-08-06T12:12:48.336Z,41.46
2018-08-06T12:15:17.527Z,39.75
2018-08-06T12:17:47.045Z,40.66
2018-08-06T12:20:18.205Z,42.77
2018-08-06T12:22:48.588Z,42.63
2018-08-06T12:25:18.209Z,42.25
2018-08-06T12:27:48.105Z,43.12
2018-08-06T12:30:20.337Z,42.50
2018-08-06T12:32:50.206Z,41.33
2018-08-06T12:35:19.490Z,42.37
2018-08-06T12:37:49.037Z,42.08
2018-08-06T12:40:19.518Z,40.99
2018-08-06T12:42:48.844Z,41.76
2018-08-06T12:45:18.397Z,42.95
2018-08-06T12:47:47.816Z,43.42
2018-08-06T12:50:17.554Z,43.64
2018-08-06T12:52:46.937Z,44.50
2018-08-06T12:55:17.284Z,44.08
2018-08-06T12:57:46.785Z,41.71
2018-08-06T13:00:23.685Z,42.54
2018-08-06T13:02:53.369Z,41.24
2018-08-06T13:05:23.274Z,42.59
2018-08-06T13:07:52.527Z,41.85
2018-08-06T13:10:21.681Z,41.41
2018-08-06T13:12:50.869Z,42.48
2018-08-06T13:15:20.036Z,41.15
2018-08-06T13:17:49.220Z,41.69
2018-08-06T13:20:18.404Z,41.27
2018-08-06T13:22:47.574Z,41.71
2018-08-06T13:25:16.781Z,41.11
2018-08-06T13:27:45.929Z,41.24
2018-08-06T13:30:15.983Z,43.11
2018-08-06T13:32:45.669Z,40.80
2018-08-06T13:35:15.833Z,41.49
2018-08-06T13:37:45.646Z,40.24
2018-08-06T13:40:14.793Z,39.60
2018-08-06T13:42:43.952Z,40.87
2018-08-06T13:45:14.143Z,38.99
2018-08-06T13:47:44.186Z,38.91
2018-08-06T13:50:13.524Z,41.02
2018-08-06T13:52:42.681Z,38.10
2018-08-06T13:55:12.965Z,39.60
2018-08-06T13:57:42.366Z,38.83
2018-08-06T14:00:17.605Z,39.47
2018-08-06T14:02:47.215Z,40.21
2018-08-06T14:05:17.365Z,38.97
2018-08-06T14:07:47.647Z,38.38
2018-08-06T14:10:17.297Z,41.12
2018-08-06T14:12:46.669Z,38.97
2018-08-06T14:15:15.645Z,37.60
2018-08-06T14:17:44.953Z,38.52
2018-08-06T14:20:16.721Z,38.92
2018-08-06T14:22:45.656Z,40.04
2018-08-06T14:25:14.820Z,39.47
2018-08-06T14:27:43.993Z,38.96
2018-08-06T14:30:15.959Z,37.87
2018-08-06T14:32:45.569Z,37.65
2018-08-06T14:35:15.377Z,36.40
2018-08-06T14:37:44.544Z,37.56
2018-08-06T14:40:17.423Z,38.23
2018-08-06T14:42:46.870Z,38.75
2018-08-06T14:45:16.155Z,36.70
2018-08-06T14:47:45.411Z,37.83
2018-08-06T14:50:15.386Z,38.38
2018-08-06T14:52:44.541Z,36.67
2018-08-06T14:55:13.765Z,38.75
2018-08-06T14:57:43.176Z,36.95
2018-08-06T15:00:17.981Z,38.57
2018-08-06T15:02:47.517Z,37.42
2018-08-06T15:05:16.677Z,37.55
2018-08-06T15:07:46.134Z,38.31
2018-08-06T15:10:15.836Z,37.49
2018-08-06T15:12:45.415Z,38.47
2018-08-06T15:15:15.745Z,37.82
2018-08-06T15:17:45.877Z,35.89
2018-08-06T15:20:16.284Z,36.18
2018-08-06T15:22:45.834Z,37.62
2018-08-06T15:25:20.353Z,37.17
2018-08-06T15:27:49.733Z,37.18
2018-08-06T15:30:18.933Z,38.51
2018-08-06T15:32:47.869Z,35.68
2018-08-06T15:35:17.081Z,37.00
2018-08-06T15:37:46.243Z,37.04
2018-08-06T15:40:17.952Z,37.80
2018-08-06T15:42:47.193Z,38.35
2018-08-06T15:45:16.361Z,37.20
2018-08-06T15:47:46.507Z,37.26
2018-08-06T15:50:20.269Z,38.22
2018-08-06T15:52:49.794Z,36.83
2018-08-06T15:55:18.970Z,38.26
2018-08-06T15:57:48.129Z,37.00
2018-08-06T16:00:18.513Z,37.29
2018-08-06T16:02:48.121Z,37.60
2018-08-06T16:05:17.281Z,36.95
2018-08-06T16:07:46.696Z,36.36
2018-08-06T16:10:16.637Z,37.32
2018-08-06T16:12:45.792Z,38.29
2018-08-06T16:15:15.740Z,36.39
2018-08-06T16:17:45.348Z,36.79
2018-08-06T16:20:16.083Z,36.95
2018-08-06T16:22:45.272Z,36.03
2018-08-06T16:25:14.877Z,36.77
2018-08-06T16:27:44.072Z,36.20
2018-08-06T16:30:19.885Z,37.20
2018-08-06T16:32:49.441Z,36.12
2018-08-06T16:35:20.597Z,36.02
2018-08-06T16:37:51.484Z,36.38
2018-08-06T16:40:20.640Z,37.02
2018-08-06T16:42:50.638Z,37.87
2018-08-06T16:45:19.891Z,37.60
2018-08-06T16:47:49.045Z,37.64
2018-08-06T16:50:18.888Z,35.59
2018-08-06T16:52:48.485Z,36.39
2018-08-06T16:55:17.256Z,37.19
2018-08-06T16:57:46.419Z,37.28
2018-08-06T17:00:22.601Z,37.36
2018-08-06T17:02:52.899Z,38.33
2018-08-06T17:05:22.322Z,38.26
2018-08-06T17:07:51.695Z,37.21
2018-08-06T17:10:21.821Z,37.80
2018-08-06T17:12:53.014Z,44.45
2018-08-06T17:15:22.697Z,41.78
2018-08-06T17:17:54.038Z,41.41
2018-08-06T17:20:23.848Z,41.89
2018-08-06T17:22:53.463Z,41.29
2018-08-06T17:25:22.647Z,41.86
2018-08-06T17:27:51.799Z,42.25
2018-08-06T17:30:20.977Z,42.52
2018-08-06T17:32:50.457Z,40.72
2018-08-06T17:35:19.634Z,42.49
2018-08-06T17:37:48.885Z,42.67
2018-08-06T17:40:19.181Z,43.53
2018-08-06T17:42:48.664Z,43.77
2018-08-06T17:45:21.008Z,42.20
2018-08-06T17:47:50.365Z,42.27
2018-08-06T17:50:21.175Z,43.93
2018-08-06T17:52:51.192Z,43.24
2018-08-06T17:55:21.309Z,43.08
2018-08-06T17:57:50.509Z,43.02
2018-08-06T18:00:20.208Z,44.40
2018-08-06T18:02:49.421Z,44.82
2018-08-06T18:05:19.127Z,43.80
2018-08-06T18:07:48.407Z,44.24
2018-08-06T18:10:18.258Z,43.49
2018-08-06T18:12:48.660Z,43.46
2018-08-06T18:15:17.836Z,44.47
2018-08-06T18:17:47.657Z,44.25
2018-08-06T18:20:18.422Z,43.05
2018-08-06T18:22:47.717Z,44.24
2018-08-06T18:25:18.457Z,44.32
2018-08-06T18:27:48.469Z,45.23
2018-08-06T18:30:22.278Z,45.93
2018-08-06T18:32:51.497Z,45.39
2018-08-06T18:35:21.008Z,44.38
2018-08-06T18:37:50.256Z,45.73
2018-08-06T18:40:20.604Z,45.89
2018-08-06T18:42:49.788Z,44.87
2018-08-06T18:45:20.130Z,47.14
2018-08-06T18:47:50.229Z,46.43
2018-08-06T18:50:19.879Z,45.24
2018-08-06T18:52:49.671Z,46.52
2018-08-06T18:55:19.168Z,48.08
2018-08-06T18:57:48.529Z,48.15
2018-08-06T19:00:21.157Z,48.34
2018-08-06T19:02:50.476Z,47.81
2018-08-06T19:05:19.667Z,46.67
2018-08-06T19:07:48.817Z,46.74
2018-08-06T19:10:18.037Z,47.83
2018-08-06T19:14:56.700Z,46.85
2018-08-06T19:17:26.021Z,46.71
2018-08-06T19:19:55.314Z,46.52
2018-08-06T19:22:24.461Z,46.58
2018-08-06T19:25:29.283Z,46.74
2018-08-06T19:27:58.892Z,46.52
2018-08-06T19:30:33.236Z,47.53
2018-08-06T19:33:02.819Z,47.23
2018-08-06T19:35:32.009Z,47.72
2018-08-06T19:38:01.391Z,46.63
2018-08-06T19:40:30.885Z,47.45
2018-08-06T19:43:05.603Z,45.95
2018-08-06T19:45:35.016Z,45.74
2018-08-06T19:48:04.444Z,44.97
2018-08-06T19:50:38.222Z,45.32
2018-08-06T19:53:07.714Z,46.28
2018-08-06T19:55:42.103Z,45.46
2018-08-06T19:58:11.330Z,45.41
2018-08-06T20:00:40.489Z,44.94
2018-08-06T20:03:09.765Z,46.18
2018-08-06T20:05:39.113Z,45.96
2018-08-06T20:08:08.495Z,46.79
2018-08-06T20:10:37.679Z,45.78
2018-08-06T20:13:07.064Z,46.32
2018-08-06T20:15:36.256Z,47.56
2018-08-06T20:18:05.535Z,47.67
2018-08-06T20:20:34.688Z,47.43
2018-08-06T20:23:03.903Z,48.79
2018-08-06T20:25:33.113Z,47.13
2018-08-06T20:28:02.353Z,48.75
2018-08-06T20:30:31.585Z,49.19
2018-08-06T20:33:00.793Z,48.28
2018-08-06T20:35:30.015Z,48.18
2018-08-06T20:37:59.201Z,47.89
2018-08-06T20:40:28.384Z,47.78
2018-08-06T20:42:57.668Z,48.54
2018-08-06T20:45:26.852Z,48.93
2018-08-06T20:47:56.109Z,46.69
2018-08-06T20:50:25.386Z,47.72
2018-08-06T20:52:55.173Z,48.02
2018-08-06T20:55:24.390Z,47.91
2018-08-06T20:57:53.580Z,48.62
2018-08-06T21:00:24.427Z,49.05
2018-08-06T21:02:53.934Z,47.55
2018-08-06T21:05:23.130Z,46.73
2018-08-06T21:07:52.385Z,46.70
2018-08-06T21:10:21.706Z,46.51
2018-08-06T21:12:50.905Z,46.48
2018-08-06T21:15:20.128Z,46.40
2018-08-06T21:17:49.435Z,46.96
2018-08-06T21:20:19.629Z,47.24
2018-08-06T21:22:49.668Z,46.06
2018-08-06T21:25:18.957Z,46.20
2018-08-06T21:27:48.941Z,44.38
2018-08-06T21:30:20.824Z,45.49
2018-08-06T21:32:54.808Z,45.50
2018-08-06T21:35:25.378Z,43.95
2018-08-06T21:37:55.270Z,45.05
2018-08-06T21:40:25.160Z,44.32
2018-08-06T21:42:54.196Z,43.35
2018-08-06T21:45:23.416Z,42.99
2018-08-06T21:47:52.605Z,43.23
2018-08-06T21:50:21.777Z,42.60
2018-08-06T21:52:50.961Z,43.29
2018-08-06T21:55:20.130Z,43.38
2018-08-06T21:57:49.312Z,42.93
2018-08-06T22:00:29.725Z,42.14
2018-08-06T22:02:58.905Z,42.76
2018-08-06T22:05:28.105Z,43.75
2018-08-06T22:07:57.290Z,43.90
2018-08-06T22:10:26.489Z,43.65
2018-08-06T22:12:55.685Z,44.99
2018-08-06T22:15:24.930Z,43.29
2018-08-06T22:17:54.124Z,43.99
2018-08-06T22:20:23.304Z,43.50
2018-08-06T22:22:52.997Z,44.54
2018-08-06T22:25:22.405Z,45.25
2018-08-06T22:27:51.594Z,45.49
2018-08-06T22:30:20.761Z,43.89
2018-08-06T22:32:49.927Z,44.72
2018-08-06T22:35:19.473Z,45.42
2018-08-06T22:37:48.629Z,45.32
2018-08-06T22:40:17.840Z,45.62
2018-08-06T22:42:46.965Z,46.04
2018-08-06T22:45:16.133Z,45.24
2018-08-06T22:47:45.321Z,45.15
2018-08-06T22:50:14.720Z,47.19
2018-08-06T22:52:43.965Z,46.05
2018-08-06T22:55:13.543Z,45.88
2018-08-06T22:57:43.316Z,46.01
2018-08-06T23:00:15.158Z,47.53
2018-08-06T23:02:44.675Z,46.97
2018-08-06T23:05:16.029Z,46.39
2018-08-06T23:07:45.325Z,46.89
2018-08-06T23:10:16.720Z,46.29
2018-08-06T23:12:45.904Z,46.26
2018-08-06T23:15:16.392Z,45.74
2018-08-06T23:17:45.905Z,47.42
2018-08-06T23:20:14.873Z,46.65
2018-08-06T23:22:44.037Z,45.73
2018-08-06T23:25:13.213Z,47.32
2018-08-06T23:27:42.387Z,48.21
2018-08-06T23:30:14.390Z,47.96
2018-08-06T23:32:43.728Z,47.94
2018-08-06T23:35:13.861Z,47.92
2018-08-06T23:37:44.106Z,47.47
2018-08-06T23:40:14.127Z,48.64
2018-08-06T23:42:43.693Z,47.88
2018-08-06T23:45:15.245Z,48.30
2018-08-06T23:47:44.436Z,49.05
2018-08-06T23:50:15.192Z,49.28
2018-08-06T23:52:45.495Z,49.79
2018-08-06T23:55:18.529Z,49.43
2018-08-06T23:57:48.390Z,49.92
